sensor_id;sensor_type;location;lat;lon;timestamp;pressure;altitude;pressure_sealevel;temperature;humidity
72308;BME280;60257;42.638;23.376;2024-03-17T00:00:06;94883.94;;;6.70;78.95
72308;BME280;60257;42.638;23.376;2024-03-17T00:02:10;94886.03;;;6.73;78.79
72308;BME280;60257;42.638;23.376;2024-03-17T00:04:10;94886.34;;;6.72;79.20
72308;BME280;60257;42.638;23.376;2024-03-17T00:06:11;94881.53;;;6.69;80.02
72308;BME280;60257;42.638;23.376;2024-03-17T00:08:11;94880.41;;;6.70;79.79
72308;BME280;60257;42.638;23.376;2024-03-17T00:10:11;94882.00;;;6.71;79.75
72308;BME280;60257;42.638;23.376;2024-03-17T00:12:12;94880.72;;;6.68;79.84
72308;BME280;60257;42.638;23.376;2024-03-17T00:14:12;94877.03;;;6.64;79.61
72308;BME280;60257;42.638;23.376;2024-03-17T00:16:13;94879.09;;;6.58;80.46
72308;BME280;60257;42.638;23.376;2024-03-17T00:18:13;94874.91;;;6.52;80.90
72308;BME280;60257;42.638;23.376;2024-03-17T00:20:14;94865.78;;;6.48;80.74
72308;BME280;60257;42.638;23.376;2024-03-17T00:22:19;94875.69;;;6.44;81.35
72308;BME280;60257;42.638;23.376;2024-03-17T00:24:20;94881.13;;;6.44;81.38
72308;BME280;60257;42.638;23.376;2024-03-17T00:26:21;94874.41;;;6.42;81.26
72308;BME280;60257;42.638;23.376;2024-03-17T00:28:22;94875.03;;;6.39;81.60
72308;BME280;60257;42.638;23.376;2024-03-17T00:30:23;94871.19;;;6.40;81.83
72308;BME280;60257;42.638;23.376;2024-03-17T00:32:23;94865.53;;;6.28;81.98
72308;BME280;60257;42.638;23.376;2024-03-17T00:34:24;94864.88;;;6.22;82.69
72308;BME280;60257;42.638;23.376;2024-03-17T00:36:24;94869.00;;;6.19;82.59
72308;BME280;60257;42.638;23.376;2024-03-17T00:38:25;94869.31;;;6.09;83.16
72308;BME280;60257;42.638;23.376;2024-03-17T00:40:25;94861.31;;;6.13;83.09
72308;BME280;60257;42.638;23.376;2024-03-17T00:42:25;94862.59;;;6.15;82.97
72308;BME280;60257;42.638;23.376;2024-03-17T00:44:26;94859.53;;;6.08;83.20
72308;BME280;60257;42.638;23.376;2024-03-17T00:46:27;94859.34;;;6.05;83.34
72308;BME280;60257;42.638;23.376;2024-03-17T00:48:28;94870.59;;;6.12;83.39
72308;BME280;60257;42.638;23.376;2024-03-17T00:50:28;94857.31;;;6.10;83.27
72308;BME280;60257;42.638;23.376;2024-03-17T00:52:28;94866.69;;;6.04;83.58
72308;BME280;60257;42.638;23.376;2024-03-17T00:54:29;94868.19;;;6.10;83.32
72308;BME280;60257;42.638;23.376;2024-03-17T00:56:29;94867.09;;;6.11;83.23
72308;BME280;60257;42.638;23.376;2024-03-17T00:58:31;94865.78;;;6.09;83.21
72308;BME280;60257;42.638;23.376;2024-03-17T01:00:31;94872.66;;;6.06;83.39
72308;BME280;60257;42.638;23.376;2024-03-17T01:02:33;94874.56;;;6.06;83.51
72308;BME280;60257;42.638;23.376;2024-03-17T01:04:33;94874.09;;;6.04;83.40
72308;BME280;60257;42.638;23.376;2024-03-17T01:06:34;94872.16;;;6.04;83.48
72308;BME280;60257;42.638;23.376;2024-03-17T01:08:34;94872.78;;;6.01;83.69
72308;BME280;60257;42.638;23.376;2024-03-17T01:10:38;94866.19;;;5.94;83.91
72308;BME280;60257;42.638;23.376;2024-03-17T01:12:39;94866.81;;;5.91;83.91
72308;BME280;60257;42.638;23.376;2024-03-17T01:14:39;94875.31;;;5.98;83.94
72308;BME280;60257;42.638;23.376;2024-03-17T01:16:40;94876.94;;;5.99;83.92
72308;BME280;60257;42.638;23.376;2024-03-17T01:18:40;94873.09;;;6.00;84.13
72308;BME280;60257;42.638;23.376;2024-03-17T01:20:43;94870.69;;;5.98;83.62
72308;BME280;60257;42.638;23.376;2024-03-17T01:22:44;94872.91;;;5.96;83.66
72308;BME280;60257;42.638;23.376;2024-03-17T01:24:44;94876.28;;;5.93;83.73
72308;BME280;60257;42.638;23.376;2024-03-17T01:26:46;94869.84;;;5.89;83.85
72308;BME280;60257;42.638;23.376;2024-03-17T01:28:46;94865.19;;;5.90;83.94
72308;BME280;60257;42.638;23.376;2024-03-17T01:30:47;94873.16;;;5.86;84.07
72308;BME280;60257;42.638;23.376;2024-03-17T01:32:48;94870.25;;;5.82;84.02
72308;BME280;60257;42.638;23.376;2024-03-17T01:34:49;94863.84;;;5.78;84.48
72308;BME280;60257;42.638;23.376;2024-03-17T01:36:49;94874.03;;;5.73;84.47
72308;BME280;60257;42.638;23.376;2024-03-17T01:38:49;94876.88;;;5.68;84.81
72308;BME280;60257;42.638;23.376;2024-03-17T01:40:50;94876.47;;;5.52;85.59
72308;BME280;60257;42.638;23.376;2024-03-17T01:42:50;94878.00;;;5.45;86.26
72308;BME280;60257;42.638;23.376;2024-03-17T01:44:51;94868.53;;;5.42;86.33
72308;BME280;60257;42.638;23.376;2024-03-17T01:46:52;94871.97;;;5.48;86.31
72308;BME280;60257;42.638;23.376;2024-03-17T01:48:54;94867.81;;;5.50;86.08
72308;BME280;60257;42.638;23.376;2024-03-17T01:50:56;94867.34;;;5.48;86.11
72308;BME280;60257;42.638;23.376;2024-03-17T01:53:00;94872.22;;;5.37;86.64
72308;BME280;60257;42.638;23.376;2024-03-17T01:55:02;94871.63;;;5.27;87.11
72308;BME280;60257;42.638;23.376;2024-03-17T01:57:03;94870.88;;;5.26;87.23
72308;BME280;60257;42.638;23.376;2024-03-17T01:59:04;94866.69;;;5.29;87.16
72308;BME280;60257;42.638;23.376;2024-03-17T02:01:05;94872.22;;;5.37;86.58
72308;BME280;60257;42.638;23.376;2024-03-17T02:03:06;94875.44;;;5.39;86.53
72308;BME280;60257;42.638;23.376;2024-03-17T02:05:08;94867.34;;;5.48;86.18
72308;BME280;60257;42.638;23.376;2024-03-17T02:07:10;94873.25;;;5.50;85.85
72308;BME280;60257;42.638;23.376;2024-03-17T02:09:10;94874.25;;;5.54;85.56
72308;BME280;60257;42.638;23.376;2024-03-17T02:13:26;94871.16;;;5.47;85.87
72308;BME280;60257;42.638;23.376;2024-03-17T02:15:27;94874.38;;;5.49;86.01
72308;BME280;60257;42.638;23.376;2024-03-17T02:17:28;94871.97;;;5.48;86.13
72308;BME280;60257;42.638;23.376;2024-03-17T02:19:29;94871.16;;;5.47;86.05
72308;BME280;60257;42.638;23.376;2024-03-17T02:21:29;94872.78;;;5.48;86.15
72308;BME280;60257;42.638;23.376;2024-03-17T02:23:33;94868.44;;;5.47;86.09
72308;BME280;60257;42.638;23.376;2024-03-17T02:25:34;94875.50;;;5.48;86.17
72308;BME280;60257;42.638;23.376;2024-03-17T02:27:35;94870.34;;;5.47;86.16
72308;BME280;60257;42.638;23.376;2024-03-17T02:29:35;94871.47;;;5.46;86.39
72308;BME280;60257;42.638;23.376;2024-03-17T02:31:37;94868.69;;;5.37;86.08
72308;BME280;60257;42.638;23.376;2024-03-17T02:33:37;94873.31;;;5.36;86.11
72308;BME280;60257;42.638;23.376;2024-03-17T02:35:38;94871.34;;;5.28;85.93
72308;BME280;60257;42.638;23.376;2024-03-17T02:37:38;94857.56;;;5.25;86.30
72308;BME280;60257;42.638;23.376;2024-03-17T02:39:39;94874.78;;;5.20;86.41
72308;BME280;60257;42.638;23.376;2024-03-17T02:41:43;94869.97;;;5.17;86.70
72308;BME280;60257;42.638;23.376;2024-03-17T02:43:44;94862.94;;;5.16;86.67
72308;BME280;60257;42.638;23.376;2024-03-17T02:45:45;94863.97;;;5.07;87.17
72308;BME280;60257;42.638;23.376;2024-03-17T02:47:45;94869.09;;;5.08;87.15
72308;BME280;60257;42.638;23.376;2024-03-17T02:49:45;94864.78;;;5.07;87.40
72308;BME280;60257;42.638;23.376;2024-03-17T02:51:50;94866.31;;;4.99;87.62
72308;BME280;60257;42.638;23.376;2024-03-17T02:53:51;94851.75;;;4.95;87.55
72308;BME280;60257;42.638;23.376;2024-03-17T02:55:51;94864.91;;;5.02;87.82
72308;BME280;60257;42.638;23.376;2024-03-17T02:57:51;94857.97;;;4.96;87.63
72308;BME280;60257;42.638;23.376;2024-03-17T02:59:52;94855.25;;;4.96;87.59
72308;BME280;60257;42.638;23.376;2024-03-17T03:01:52;94864.31;;;4.91;87.68
72308;BME280;60257;42.638;23.376;2024-03-17T03:03:52;94862.72;;;4.90;87.57
72308;BME280;60257;42.638;23.376;2024-03-17T03:05:53;94860.78;;;4.91;87.70
72308;BME280;60257;42.638;23.376;2024-03-17T03:07:53;94865.44;;;4.90;87.48
72308;BME280;60257;42.638;23.376;2024-03-17T03:09:54;94861.41;;;4.88;87.92
72308;BME280;60257;42.638;23.376;2024-03-17T03:11:54;94862.53;;;4.87;87.69
72308;BME280;60257;42.638;23.376;2024-03-17T03:13:54;94864.06;;;4.79;86.86
72308;BME280;60257;42.638;23.376;2024-03-17T03:15:55;94859.81;;;4.73;86.83
72308;BME280;60257;42.638;23.376;2024-03-17T03:17:55;94861.94;;;4.76;86.67
72308;BME280;60257;42.638;23.376;2024-03-17T03:19:55;94857.13;;;4.73;86.83
72308;BME280;60257;42.638;23.376;2024-03-17T03:21:56;94849.88;;;4.69;86.91
72308;BME280;60257;42.638;23.376;2024-03-17T03:23:56;94857.22;;;4.68;86.94
72308;BME280;60257;42.638;23.376;2024-03-17T03:25:57;94855.25;;;4.60;87.21
72308;BME280;60257;42.638;23.376;2024-03-17T03:27:58;94856.53;;;4.62;86.95
72308;BME280;60257;42.638;23.376;2024-03-17T03:29:59;94861.97;;;4.62;87.10
72308;BME280;60257;42.638;23.376;2024-03-17T03:32:00;94852.22;;;4.61;87.20
72308;BME280;60257;42.638;23.376;2024-03-17T03:34:00;94866.09;;;4.60;87.07
72308;BME280;60257;42.638;23.376;2024-03-17T03:36:14;94856.16;;;4.55;87.31
72308;BME280;60257;42.638;23.376;2024-03-17T03:38:15;94865.72;;;4.53;86.87
72308;BME280;60257;42.638;23.376;2024-03-17T03:40:15;94865.72;;;4.53;87.11
72308;BME280;60257;42.638;23.376;2024-03-17T03:42:18;94865.19;;;4.51;87.27
72308;BME280;60257;42.638;23.376;2024-03-17T03:44:18;94870.94;;;4.49;87.30
72308;BME280;60257;42.638;23.376;2024-03-17T03:46:19;94875.25;;;4.50;87.28
72308;BME280;60257;42.638;23.376;2024-03-17T03:48:20;94862.31;;;4.47;87.36
72308;BME280;60257;42.638;23.376;2024-03-17T03:50:22;94875.88;;;4.47;87.94
72308;BME280;60257;42.638;23.376;2024-03-17T03:52:23;94880.22;;;4.48;88.16
72308;BME280;60257;42.638;23.376;2024-03-17T03:54:25;94880.81;;;4.45;87.76
72308;BME280;60257;42.638;23.376;2024-03-17T03:56:25;94880.91;;;4.40;87.39
72308;BME280;60257;42.638;23.376;2024-03-17T03:58:26;94884.22;;;4.37;87.63
72308;BME280;60257;42.638;23.376;2024-03-17T04:00:26;94886.72;;;4.34;87.96
72308;BME280;60257;42.638;23.376;2024-03-17T04:02:29;94877.72;;;4.24;88.00
72308;BME280;60257;42.638;23.376;2024-03-17T04:04:31;94876.78;;;4.29;87.60
72308;BME280;60257;42.638;23.376;2024-03-17T04:06:32;94890.38;;;4.29;87.66
72308;BME280;60257;42.638;23.376;2024-03-17T04:08:33;94888.34;;;4.21;87.81
72308;BME280;60257;42.638;23.376;2024-03-17T04:10:34;94891.06;;;4.21;88.02
72308;BME280;60257;42.638;23.376;2024-03-17T04:12:35;94887.25;;;4.22;88.15
72308;BME280;60257;42.638;23.376;2024-03-17T04:14:36;94887.25;;;4.22;88.06
72308;BME280;60257;42.638;23.376;2024-03-17T04:16:36;94892.69;;;4.22;88.29
72308;BME280;60257;42.638;23.376;2024-03-17T04:18:36;94892.69;;;4.22;88.57
72308;BME280;60257;42.638;23.376;2024-03-17T04:20:40;94901.81;;;4.26;88.53
72308;BME280;60257;42.638;23.376;2024-03-17T04:22:41;94904.34;;;4.22;88.55
72308;BME280;60257;42.638;23.376;2024-03-17T04:24:43;94903.84;;;4.20;88.55
72308;BME280;60257;42.638;23.376;2024-03-17T04:26:44;94905.75;;;4.20;88.47
72308;BME280;60257;42.638;23.376;2024-03-17T04:28:44;94895.00;;;4.15;88.45
72308;BME280;60257;42.638;23.376;2024-03-17T04:30:45;94908.16;;;4.21;88.33
72308;BME280;60257;42.638;23.376;2024-03-17T04:32:48;94914.41;;;4.22;88.41
72308;BME280;60257;42.638;23.376;2024-03-17T04:34:49;94910.69;;;4.18;88.57
72308;BME280;60257;42.638;23.376;2024-03-17T04:36:50;94919.94;;;4.17;88.71
72308;BME280;60257;42.638;23.376;2024-03-17T04:38:50;94915.59;;;4.16;88.57
72308;BME280;60257;42.638;23.376;2024-03-17T04:40:52;94918.09;;;4.12;88.87
72308;BME280;60257;42.638;23.376;2024-03-17T04:43:00;94923.03;;;4.10;88.74
72308;BME280;60257;42.638;23.376;2024-03-17T04:45:00;94920.63;;;4.09;88.48
72308;BME280;60257;42.638;23.376;2024-03-17T04:47:01;94931.19;;;4.10;88.08
72308;BME280;60257;42.638;23.376;2024-03-17T04:49:05;94939.00;;;4.12;87.91
72308;BME280;60257;42.638;23.376;2024-03-17T04:51:06;94930.38;;;4.10;88.04
72308;BME280;60257;42.638;23.376;2024-03-17T04:53:06;94937.19;;;4.07;87.99
72308;BME280;60257;42.638;23.376;2024-03-17T04:55:07;94931.47;;;4.09;87.94
72308;BME280;60257;42.638;23.376;2024-03-17T04:57:07;94936.91;;;4.09;88.41
72308;BME280;60257;42.638;23.376;2024-03-17T04:59:08;94940.44;;;4.09;88.22
72308;BME280;60257;42.638;23.376;2024-03-17T05:01:08;94943.63;;;4.11;88.17
72308;BME280;60257;42.638;23.376;2024-03-17T05:03:09;94947.66;;;4.14;88.42
72308;BME280;60257;42.638;23.376;2024-03-17T05:05:09;94940.03;;;4.16;88.41
72308;BME280;60257;42.638;23.376;2024-03-17T05:07:10;94943.75;;;4.20;88.37
72308;BME280;60257;42.638;23.376;2024-03-17T05:09:10;94943.66;;;4.25;88.29
72308;BME280;60257;42.638;23.376;2024-03-17T05:11:13;94954.94;;;4.32;88.63
72308;BME280;60257;42.638;23.376;2024-03-17T05:13:16;94957.53;;;4.37;88.92
72308;BME280;60257;42.638;23.376;2024-03-17T05:15:16;94960.16;;;4.42;89.12
72308;BME280;60257;42.638;23.376;2024-03-17T05:17:17;94957.84;;;4.49;88.42
72308;BME280;60257;42.638;23.376;2024-03-17T05:19:17;94961.75;;;4.57;87.81
72308;BME280;60257;42.638;23.376;2024-03-17T05:21:18;94957.34;;;4.61;87.53
72308;BME280;60257;42.638;23.376;2024-03-17T05:23:18;94963.19;;;4.68;87.00
72308;BME280;60257;42.638;23.376;2024-03-17T05:25:18;94969.31;;;4.74;86.55
72308;BME280;60257;42.638;23.376;2024-03-17T05:27:19;94969.94;;;4.71;86.58
72308;BME280;60257;42.638;23.376;2024-03-17T05:29:19;94966.59;;;4.74;86.71
72308;BME280;60257;42.638;23.376;2024-03-17T05:31:20;94974.31;;;4.80;86.77
72308;BME280;60257;42.638;23.376;2024-03-17T05:33:23;94971.91;;;4.92;86.89
72308;BME280;60257;42.638;23.376;2024-03-17T05:35:24;94971.50;;;4.99;86.41
72308;BME280;60257;42.638;23.376;2024-03-17T05:37:25;94972.41;;;5.08;86.00
72308;BME280;60257;42.638;23.376;2024-03-17T05:39:27;94972.50;;;5.17;85.30
72308;BME280;60257;42.638;23.376;2024-03-17T05:41:28;94971.59;;;5.08;85.45
72308;BME280;60257;42.638;23.376;2024-03-17T05:43:30;94969.56;;;5.13;85.78
72308;BME280;60257;42.638;23.376;2024-03-17T05:45:31;94960.38;;;5.23;85.79
72308;BME280;60257;42.638;23.376;2024-03-17T05:47:32;94958.44;;;5.37;84.99
72308;BME280;60257;42.638;23.376;2024-03-17T05:49:32;94958.72;;;5.49;84.65
72308;BME280;60257;42.638;23.376;2024-03-17T05:51:33;94956.03;;;5.58;84.50
72308;BME280;60257;42.638;23.376;2024-03-17T05:53:33;94962.25;;;5.72;84.81
72308;BME280;60257;42.638;23.376;2024-03-17T05:55:37;94962.31;;;5.80;84.44
72308;BME280;60257;42.638;23.376;2024-03-17T05:57:38;94960.47;;;5.90;84.28
72308;BME280;60257;42.638;23.376;2024-03-17T05:59:38;94951.53;;;5.98;84.25
72308;BME280;60257;42.638;23.376;2024-03-17T06:01:38;94960.06;;;6.05;83.92
72308;BME280;60257;42.638;23.376;2024-03-17T06:03:39;94959.41;;;5.99;83.23
72308;BME280;60257;42.638;23.376;2024-03-17T06:05:40;94956.75;;;6.08;83.20
72308;BME280;60257;42.638;23.376;2024-03-17T06:07:40;94967.84;;;6.20;81.91
72308;BME280;60257;42.638;23.376;2024-03-17T06:09:41;94965.38;;;6.32;81.63
72308;BME280;60257;42.638;23.376;2024-03-17T06:11:42;94958.66;;;6.38;81.03
72308;BME280;60257;42.638;23.376;2024-03-17T06:13:42;94971.84;;;6.45;81.57
72308;BME280;60257;42.638;23.376;2024-03-17T06:15:45;94973.69;;;6.58;80.63
72308;BME280;60257;42.638;23.376;2024-03-17T06:17:49;94978.03;;;6.68;80.85
72308;BME280;60257;42.638;23.376;2024-03-17T06:19:52;94979.97;;;6.76;80.78
72308;BME280;60257;42.638;23.376;2024-03-17T06:21:52;94977.91;;;6.81;80.67
72308;BME280;60257;42.638;23.376;2024-03-17T06:23:52;94978.75;;;6.90;80.17
72308;BME280;60257;42.638;23.376;2024-03-17T06:25:53;94979.06;;;6.80;79.46
72308;BME280;60257;42.638;23.376;2024-03-17T06:27:57;94988.03;;;6.89;79.01
72308;BME280;60257;42.638;23.376;2024-03-17T06:29:57;94984.72;;;7.01;79.39
72308;BME280;60257;42.638;23.376;2024-03-17T06:31:57;94980.75;;;7.16;78.94
72308;BME280;60257;42.638;23.376;2024-03-17T06:33:58;94993.91;;;7.22;77.58
72308;BME280;60257;42.638;23.376;2024-03-17T06:36:01;94992.63;;;7.28;77.12
72308;BME280;60257;42.638;23.376;2024-03-17T06:38:05;94994.13;;;7.34;76.81
72308;BME280;60257;42.638;23.376;2024-03-17T06:40:06;94990.41;;;7.39;77.14
72308;BME280;60257;42.638;23.376;2024-03-17T06:42:06;94999.09;;;7.50;76.34
72308;BME280;60257;42.638;23.376;2024-03-17T06:44:09;94997.03;;;7.55;76.07
72308;BME280;60257;42.638;23.376;2024-03-17T06:46:09;94997.16;;;7.59;76.06
72308;BME280;60257;42.638;23.376;2024-03-17T06:48:10;94999.22;;;7.36;75.95
72308;BME280;60257;42.638;23.376;2024-03-17T06:50:10;95001.34;;;7.48;76.06
72308;BME280;60257;42.638;23.376;2024-03-17T06:52:10;95000.06;;;7.62;75.62
72308;BME280;60257;42.638;23.376;2024-03-17T06:54:11;94990.28;;;7.70;75.27
72308;BME280;60257;42.638;23.376;2024-03-17T06:56:11;94985.31;;;7.81;74.83
72308;BME280;60257;42.638;23.376;2024-03-17T06:58:11;94990.28;;;7.79;74.93
72308;BME280;60257;42.638;23.376;2024-03-17T07:00:13;94994.63;;;7.88;75.10
72308;BME280;60257;42.638;23.376;2024-03-17T07:02:14;94996.06;;;7.94;74.57
72308;BME280;60257;42.638;23.376;2024-03-17T07:04:17;95003.13;;;8.04;74.27
72308;BME280;60257;42.638;23.376;2024-03-17T07:06:17;94997.81;;;8.07;74.65
72308;BME280;60257;42.638;23.376;2024-03-17T07:08:18;95001.53;;;8.20;73.90
72308;BME280;60257;42.638;23.376;2024-03-17T07:10:20;94997.81;;;8.33;73.25
72308;BME280;60257;42.638;23.376;2024-03-17T07:12:20;94987.50;;;8.39;72.81
72308;BME280;60257;42.638;23.376;2024-03-17T07:14:20;94989.59;;;8.51;72.77
72308;BME280;60257;42.638;23.376;2024-03-17T07:16:21;94978.16;;;8.48;72.70
72308;BME280;60257;42.638;23.376;2024-03-17T07:18:26;94990.53;;;8.55;72.37
72308;BME280;60257;42.638;23.376;2024-03-17T07:20:27;94984.75;;;8.56;72.10
72308;BME280;60257;42.638;23.376;2024-03-17T07:22:27;94982.00;;;8.65;71.90
72308;BME280;60257;42.638;23.376;2024-03-17T07:24:28;94983.56;;;8.74;71.60
72308;BME280;60257;42.638;23.376;2024-03-17T07:26:30;94989.66;;;8.80;71.41
72308;BME280;60257;42.638;23.376;2024-03-17T07:28:31;94984.44;;;8.96;71.33
72308;BME280;60257;42.638;23.376;2024-03-17T07:30:31;94981.78;;;9.08;70.42
72308;BME280;60257;42.638;23.376;2024-03-17T07:32:32;94979.50;;;9.18;69.38
72308;BME280;60257;42.638;23.376;2024-03-17T07:34:33;94987.63;;;9.36;68.83
72308;BME280;60257;42.638;23.376;2024-03-17T07:36:33;94984.34;;;9.42;69.32
72308;BME280;60257;42.638;23.376;2024-03-17T07:38:34;94981.72;;;9.46;68.95
72308;BME280;60257;42.638;23.376;2024-03-17T07:40:35;94993.16;;;9.48;68.98
72308;BME280;60257;42.638;23.376;2024-03-17T07:42:36;94987.03;;;9.72;67.85
72308;BME280;60257;42.638;23.376;2024-03-17T07:44:37;94985.63;;;9.86;66.59
72308;BME280;60257;42.638;23.376;2024-03-17T07:46:37;94986.50;;;9.99;65.98
72308;BME280;60257;42.638;23.376;2024-03-17T07:48:40;94989.97;;;10.08;65.78
72308;BME280;60257;42.638;23.376;2024-03-17T07:50:40;94986.19;;;10.21;65.75
72308;BME280;60257;42.638;23.376;2024-03-17T07:52:41;94986.22;;;10.33;65.13
72308;BME280;60257;42.638;23.376;2024-03-17T07:54:41;94993.78;;;10.36;64.79
72308;BME280;60257;42.638;23.376;2024-03-17T07:56:42;94981.69;;;10.37;64.91
72308;BME280;60257;42.638;23.376;2024-03-17T07:58:43;94991.38;;;10.35;64.25
72308;BME280;60257;42.638;23.376;2024-03-17T08:00:44;94987.75;;;10.43;64.41
72308;BME280;60257;42.638;23.376;2024-03-17T08:02:45;94985.00;;;10.43;64.14
72308;BME280;60257;42.638;23.376;2024-03-17T08:04:45;94979.38;;;10.39;64.16
72308;BME280;60257;42.638;23.376;2024-03-17T08:06:46;94975.00;;;10.26;64.47
72308;BME280;60257;42.638;23.376;2024-03-17T08:08:46;94979.94;;;10.33;65.02
72308;BME280;60257;42.638;23.376;2024-03-17T08:10:47;94983.69;;;10.08;64.85
72308;BME280;60257;42.638;23.376;2024-03-17T08:12:50;94983.69;;;10.28;64.40
72308;BME280;60257;42.638;23.376;2024-03-17T08:14:50;94976.97;;;10.38;63.94
72308;BME280;60257;42.638;23.376;2024-03-17T08:16:50;94982.25;;;10.43;63.80
72308;BME280;60257;42.638;23.376;2024-03-17T08:18:51;94981.47;;;10.43;63.72
72308;BME280;60257;42.638;23.376;2024-03-17T08:20:51;94982.03;;;10.48;63.45
72308;BME280;60257;42.638;23.376;2024-03-17T08:22:51;94978.25;;;10.40;62.99
72308;BME280;60257;42.638;23.376;2024-03-17T08:24:52;94981.31;;;10.39;63.21
72308;BME280;60257;42.638;23.376;2024-03-17T08:26:53;94989.38;;;10.23;64.04
72308;BME280;60257;42.638;23.376;2024-03-17T08:28:53;94981.22;;;10.35;63.94
72308;BME280;60257;42.638;23.376;2024-03-17T08:30:57;94979.59;;;10.34;64.22
72308;BME280;60257;42.638;23.376;2024-03-17T08:32:59;94981.13;;;10.44;63.03
72308;BME280;60257;42.638;23.376;2024-03-17T08:34:59;94976.31;;;10.53;63.39
72308;BME280;60257;42.638;23.376;2024-03-17T08:37:00;94978.38;;;10.44;63.27
72308;BME280;60257;42.638;23.376;2024-03-17T08:39:00;94978.22;;;10.28;63.71
72308;BME280;60257;42.638;23.376;2024-03-17T08:41:06;94974.19;;;10.26;63.57
72308;BME280;60257;42.638;23.376;2024-03-17T08:43:06;94975.28;;;10.46;63.39
72308;BME280;60257;42.638;23.376;2024-03-17T08:45:07;94970.50;;;10.55;62.53
72308;BME280;60257;42.638;23.376;2024-03-17T08:47:08;94970.31;;;10.60;62.11
72308;BME280;60257;42.638;23.376;2024-03-17T08:49:08;94961.28;;;10.59;62.34
72308;BME280;60257;42.638;23.376;2024-03-17T08:51:09;94960.59;;;10.62;62.22
72308;BME280;60257;42.638;23.376;2024-03-17T08:53:10;94963.47;;;10.66;63.06
72308;BME280;60257;42.638;23.376;2024-03-17T08:55:11;94954.38;;;10.41;63.01
72308;BME280;60257;42.638;23.376;2024-03-17T08:57:14;94954.53;;;10.57;63.04
72308;BME280;60257;42.638;23.376;2024-03-17T08:59:14;94962.88;;;10.60;63.15
72308;BME280;60257;42.638;23.376;2024-03-17T09:01:15;94956.69;;;10.63;63.10
72308;BME280;60257;42.638;23.376;2024-03-17T09:03:17;94953.97;;;10.63;62.85
72308;BME280;60257;42.638;23.376;2024-03-17T09:05:17;94956.84;;;10.67;62.92
72308;BME280;60257;42.638;23.376;2024-03-17T09:07:18;94949.22;;;10.39;63.30
72308;BME280;60257;42.638;23.376;2024-03-17T09:09:18;94941.47;;;10.54;63.82
72308;BME280;60257;42.638;23.376;2024-03-17T09:11:18;94948.94;;;10.65;63.59
72308;BME280;60257;42.638;23.376;2024-03-17T09:13:25;94949.84;;;10.69;62.78
72308;BME280;60257;42.638;23.376;2024-03-17T09:15:26;94944.59;;;10.76;63.13
72308;BME280;60257;42.638;23.376;2024-03-17T09:17:26;94942.91;;;10.84;62.47
72308;BME280;60257;42.638;23.376;2024-03-17T09:19:27;94943.03;;;10.75;63.00
72308;BME280;60257;42.638;23.376;2024-03-17T09:21:29;94944.41;;;10.94;61.94
72308;BME280;60257;42.638;23.376;2024-03-17T09:23:30;94945.22;;;11.06;61.58
72308;BME280;60257;42.638;23.376;2024-03-17T09:25:31;94936.84;;;11.03;61.64
72308;BME280;60257;42.638;23.376;2024-03-17T09:27:31;94932.16;;;11.03;61.89
72308;BME280;60257;42.638;23.376;2024-03-17T09:29:32;94932.63;;;11.17;62.50
72308;BME280;60257;42.638;23.376;2024-03-17T09:31:33;94935.59;;;11.25;61.77
72308;BME280;60257;42.638;23.376;2024-03-17T09:33:35;94928.81;;;11.46;60.57
72308;BME280;60257;42.638;23.376;2024-03-17T09:35:38;94923.00;;;11.36;61.05
72308;BME280;60257;42.638;23.376;2024-03-17T09:37:38;94919.25;;;11.28;60.76
72308;BME280;60257;42.638;23.376;2024-03-17T09:39:39;94922.66;;;11.25;59.21
72308;BME280;60257;42.638;23.376;2024-03-17T09:41:39;94914.06;;;11.51;58.56
72308;BME280;60257;42.638;23.376;2024-03-17T09:43:40;94916.88;;;11.67;56.87
72308;BME280;60257;42.638;23.376;2024-03-17T09:45:40;94908.81;;;11.86;55.33
72308;BME280;60257;42.638;23.376;2024-03-17T09:47:41;94909.03;;;11.93;54.79
72308;BME280;60257;42.638;23.376;2024-03-17T09:49:42;94905.84;;;11.91;55.72
72308;BME280;60257;42.638;23.376;2024-03-17T09:51:42;94908.22;;;11.92;55.78
72308;BME280;60257;42.638;23.376;2024-03-17T09:53:44;94911.88;;;11.97;53.08
72308;BME280;60257;42.638;23.376;2024-03-17T09:55:44;94902.56;;;12.01;51.67
72308;BME280;60257;42.638;23.376;2024-03-17T09:57:44;94907.50;;;12.23;50.40
72308;BME280;60257;42.638;23.376;2024-03-17T09:59:50;94905.78;;;12.47;50.60
72308;BME280;60257;42.638;23.376;2024-03-17T10:01:51;94906.34;;;12.52;48.96
72308;BME280;60257;42.638;23.376;2024-03-17T10:03:53;94907.53;;;12.39;48.87
72308;BME280;60257;42.638;23.376;2024-03-17T10:06:02;94908.75;;;12.26;47.97
72308;BME280;60257;42.638;23.376;2024-03-17T10:08:02;94906.47;;;12.28;46.87
72308;BME280;60257;42.638;23.376;2024-03-17T10:10:22;94907.75;;;12.46;47.71
72308;BME280;60257;42.638;23.376;2024-03-17T10:12:29;94913.25;;;12.46;47.31
72308;BME280;60257;42.638;23.376;2024-03-17T10:14:29;94905.91;;;12.66;47.63
72308;BME280;60257;42.638;23.376;2024-03-17T10:16:31;94903.31;;;12.73;47.28
72308;BME280;60257;42.638;23.376;2024-03-17T10:18:32;94902.19;;;12.90;47.53
72308;BME280;60257;42.638;23.376;2024-03-17T10:20:32;94906.94;;;13.08;46.90
72308;BME280;60257;42.638;23.376;2024-03-17T10:22:32;94901.53;;;13.28;45.39
72308;BME280;60257;42.638;23.376;2024-03-17T10:24:33;94898.06;;;13.46;45.19
72308;BME280;60257;42.638;23.376;2024-03-17T10:26:41;94906.72;;;13.48;43.69
72308;BME280;60257;42.638;23.376;2024-03-17T10:28:44;94906.34;;;13.31;44.23
72308;BME280;60257;42.638;23.376;2024-03-17T10:30:57;94904.53;;;13.54;44.35
72308;BME280;60257;42.638;23.376;2024-03-17T10:32:59;94898.00;;;13.81;42.78
72308;BME280;60257;42.638;23.376;2024-03-17T10:35:00;94907.03;;;13.98;44.20
72308;BME280;60257;42.638;23.376;2024-03-17T10:37:17;94902.53;;;14.09;43.91
72308;BME280;60257;42.638;23.376;2024-03-17T10:39:27;94899.97;;;13.81;46.23
72308;BME280;60257;42.638;23.376;2024-03-17T10:41:31;94903.31;;;13.90;45.67